createdAt,value
2023-03-18T00:09:28.882Z,10.93
2023-03-18T00:14:34.414Z,11.07
2023-03-18T00:19:38.154Z,10.65
2023-03-18T00:24:41.079Z,7.32
2023-03-18T00:29:45.959Z,6.97
2023-03-18T00:34:50.729Z,9.48
2023-03-18T00:39:54.554Z,7.47
2023-03-18T00:45:00.495Z,8.80
2023-03-18T00:50:03.956Z,6.85
2023-03-18T00:55:08.320Z,6.70
2023-03-18T01:00:17.122Z,6.75
2023-03-18T01:05:20.803Z,7.50
2023-03-18T01:10:23.676Z,7.57
2023-03-18T01:15:30.392Z,10.40
2023-03-18T01:20:33.910Z,9.50
2023-03-18T01:25:38.541Z,9.35
2023-03-18T01:30:47.799Z,8.85
2023-03-18T01:35:56.539Z,6.90
2023-03-18T01:41:02.970Z,7.07
2023-03-18T01:46:39.030Z,7.70
2023-03-18T01:51:46.296Z,8.57
2023-03-18T01:56:51.723Z,7.80
2023-03-18T02:02:01.570Z,8.40
2023-03-18T02:07:08.634Z,7.68
2023-03-18T02:12:13.782Z,9.48
2023-03-18T02:17:30.249Z,10.70
2023-03-18T02:22:39.242Z,10.45
2023-03-18T02:27:49.445Z,10.77
2023-03-18T02:32:53.800Z,12.43
2023-03-18T02:37:59.398Z,12.63
2023-03-18T02:43:24.668Z,11.73
2023-03-18T02:48:37.645Z,12.38
2023-03-18T02:53:41.864Z,13.02
2023-03-18T02:58:47.017Z,12.15
2023-03-18T03:03:52.280Z,12.40
2023-03-18T03:08:55.588Z,14.07
2023-03-18T03:14:01.306Z,14.02
2023-03-18T03:19:07.085Z,15.02
2023-03-18T03:24:13.176Z,13.23
2023-03-18T03:29:18.432Z,14.50
2023-03-18T03:34:21.338Z,15.80
2023-03-18T03:39:24.345Z,14.55
2023-03-18T03:44:31.099Z,14.68
2023-03-18T03:49:34.271Z,14.88
2023-03-18T03:54:38.129Z,16.55
2023-03-18T03:59:42.323Z,14.93
2023-03-18T04:04:54.617Z,15.02
2023-03-18T04:10:02.686Z,16.45
2023-03-18T04:15:11.079Z,15.60
2023-03-18T04:20:14.827Z,15.60
2023-03-18T04:25:17.790Z,13.25
2023-03-18T04:30:25.548Z,14.02
2023-03-18T04:35:35.486Z,14.57
2023-03-18T04:40:39.559Z,13.52
2023-03-18T04:45:43.895Z,12.30
2023-03-18T04:50:48.343Z,12.88
2023-03-18T04:55:57.927Z,9.93
2023-03-18T05:01:09.442Z,10.68
2023-03-18T05:06:23.076Z,9.70
2023-03-18T05:11:33.100Z,10.05
2023-03-18T05:16:45.789Z,12.68
2023-03-18T05:21:49.761Z,10.43
2023-03-18T05:26:56.044Z,10.07
2023-03-18T05:32:07.122Z,8.75
2023-03-18T05:42:19.758Z,8.75
2023-03-18T05:47:24.446Z,9.75
2023-03-18T05:52:36.324Z,10.27
2023-03-18T05:57:43.399Z,13.27
2023-03-18T06:02:48.868Z,9.48
2023-03-18T06:07:54.868Z,14.02
2023-03-18T06:12:58.376Z,16.38
2023-03-18T06:18:04.734Z,23.02
2023-03-18T06:23:07.772Z,13.23
2023-03-18T06:28:11.066Z,13.52
2023-03-18T06:33:16.480Z,13.70
2023-03-18T06:38:19.364Z,19.77
2023-03-18T06:43:22.741Z,26.58
2023-03-18T06:48:28.357Z,9.52
2023-03-18T06:53:36.323Z,9.80
2023-03-18T06:58:39.480Z,9.70
2023-03-18T07:03:46.349Z,10.35
2023-03-18T07:08:50.174Z,8.77
2023-03-18T07:13:53.190Z,7.72
2023-03-18T07:19:04.378Z,7.90
2023-03-18T07:24:09.466Z,7.25
2023-03-18T07:29:12.431Z,7.65
2023-03-18T07:34:17.798Z,7.78
2023-03-18T07:39:20.929Z,8.10
2023-03-18T07:44:24.026Z,8.43
2023-03-18T07:49:30.065Z,6.57
2023-03-18T07:54:35.720Z,5.63
2023-03-18T07:59:38.914Z,5.30
2023-03-18T08:04:44.441Z,4.45
2023-03-18T08:09:54.155Z,5.43
2023-03-18T08:14:57.926Z,5.57
2023-03-18T08:20:02.667Z,5.80
2023-03-18T08:25:06.735Z,5.95
2023-03-18T08:30:11.036Z,4.82
2023-03-18T08:35:15.607Z,5.63
2023-03-18T08:40:20.344Z,5.57
2023-03-18T08:45:23.289Z,4.50
2023-03-18T08:50:29.847Z,5.10
2023-03-18T08:55:36.412Z,5.15
2023-03-18T09:00:43.451Z,3.97
2023-03-18T09:05:50.427Z,5.03
2023-03-18T09:10:57.477Z,4.97
2023-03-18T09:16:00.587Z,2.50
2023-03-18T09:21:05.478Z,4.53
2023-03-18T09:26:13.348Z,2.70
2023-03-18T09:31:16.502Z,2.92
2023-03-18T09:36:20.850Z,2.03
2023-03-18T09:41:38.918Z,2.15
2023-03-18T09:46:54.723Z,2.65
2023-03-18T09:52:14.768Z,2.40
2023-03-18T09:57:23.931Z,2.03
2023-03-18T10:02:33.536Z,2.28
2023-03-18T10:07:42.863Z,2.72
2023-03-18T10:12:51.682Z,2.58
2023-03-18T10:17:58.486Z,1.75
2023-03-18T10:23:21.444Z,1.88
2023-03-18T10:29:15.251Z,1.45
2023-03-18T10:34:22.966Z,1.42
2023-03-18T10:39:28.680Z,1.52
2023-03-18T10:44:35.802Z,1.92
2023-03-18T10:49:43.433Z,1.42
2023-03-18T10:54:52.476Z,1.52
2023-03-18T10:59:55.753Z,1.58
2023-03-18T11:05:06.038Z,1.17
2023-03-18T11:10:18.806Z,1.58
2023-03-18T11:15:24.145Z,1.52
2023-03-18T11:20:42.857Z,1.25
2023-03-18T11:25:56.603Z,2.40
2023-03-18T11:31:06.522Z,1.50
2023-03-18T11:36:14.347Z,2.30
2023-03-18T11:41:26.538Z,1.73
2023-03-18T11:46:33.602Z,1.60
2023-03-18T11:51:45.871Z,1.73
2023-03-18T11:56:57.251Z,1.80
2023-03-18T12:02:19.840Z,1.60
2023-03-18T12:07:42.959Z,1.58
2023-03-18T12:13:00.046Z,1.98
2023-03-18T12:18:12.975Z,1.55
2023-03-18T12:23:32.463Z,1.63
2023-03-18T12:29:01.670Z,1.75
2023-03-18T12:34:05.825Z,1.58
2023-03-18T12:39:33.940Z,1.83
2023-03-18T12:44:58.697Z,1.77
2023-03-18T12:50:04.672Z,2.90
2023-03-18T13:00:27.995Z,1.63
2023-03-18T13:05:40.728Z,1.63
2023-03-18T13:10:48.483Z,2.25
2023-03-18T13:15:54.628Z,1.90
2023-03-18T13:20:59.927Z,2.37
2023-03-18T13:26:11.749Z,1.90
2023-03-18T13:31:27.161Z,2.00
2023-03-18T13:37:15.555Z,1.55
2023-03-18T13:42:26.195Z,2.35
2023-03-18T13:47:34.727Z,1.50
2023-03-18T13:52:43.973Z,2.13
2023-03-18T13:57:49.111Z,1.70
2023-03-18T14:03:07.770Z,1.50
2023-03-18T14:08:35.159Z,2.25
2023-03-18T14:13:38.328Z,1.60
2023-03-18T14:18:43.135Z,1.73
2023-03-18T14:24:07.642Z,1.73
2023-03-18T14:29:26.132Z,1.70
2023-03-18T14:34:33.951Z,2.47
2023-03-18T14:39:42.705Z,2.25
2023-03-18T14:44:50.340Z,1.77
2023-03-18T14:50:05.392Z,2.28
2023-03-18T14:55:20.735Z,1.35
2023-03-18T15:00:24.217Z,1.40
2023-03-18T15:05:36.230Z,1.45
2023-03-18T15:10:41.689Z,1.30
2023-03-18T15:15:47.027Z,1.92
2023-03-18T15:20:55.779Z,1.30
2023-03-18T15:25:59.820Z,1.58
2023-03-18T15:31:05.820Z,1.80
2023-03-18T15:36:16.481Z,1.52
2023-03-18T15:41:23.341Z,2.35
2023-03-18T15:46:30.651Z,1.50
2023-03-18T15:51:43.623Z,2.25
2023-03-18T15:56:51.682Z,1.98
2023-03-18T16:02:00.475Z,1.77
2023-03-18T16:07:17.227Z,1.60
2023-03-18T16:12:24.042Z,1.65
2023-03-18T16:17:26.874Z,1.98
2023-03-18T16:22:33.644Z,1.55
2023-03-18T16:32:43.197Z,2.00
2023-03-18T16:37:49.260Z,1.90
2023-03-18T16:42:52.951Z,2.53
2023-03-18T16:48:00.621Z,2.78
2023-03-18T16:53:13.712Z,2.78
2023-03-18T16:58:20.979Z,2.17
2023-03-18T17:03:23.977Z,1.80
2023-03-18T17:08:29.190Z,1.92
2023-03-18T17:13:38.927Z,1.70
2023-03-18T17:18:43.592Z,1.95
2023-03-18T17:23:50.073Z,2.40
2023-03-18T17:28:53.965Z,2.93
2023-03-18T17:34:03.788Z,6.45
2023-03-18T17:39:08.988Z,2.85
2023-03-18T17:44:29.910Z,3.42
2023-03-18T17:49:39.953Z,3.50
2023-03-18T17:54:44.690Z,1.88
2023-03-18T17:59:54.026Z,2.17
2023-03-18T18:04:58.881Z,2.70
2023-03-18T18:10:03.154Z,3.00
2023-03-18T18:15:09.898Z,4.20
2023-03-18T18:20:16.290Z,4.82
2023-03-18T18:25:23.229Z,4.57
2023-03-18T18:30:27.929Z,7.15
2023-03-18T18:35:30.792Z,10.30
2023-03-18T18:40:35.773Z,11.50
2023-03-18T18:45:38.683Z,22.98
2023-03-18T18:50:43.697Z,14.90
2023-03-18T18:55:49.208Z,17.52
2023-03-18T19:00:53.005Z,22.15
2023-03-18T19:05:56.794Z,19.67
2023-03-18T19:11:03.944Z,19.88
2023-03-18T19:16:21.153Z,19.30
2023-03-18T19:21:24.624Z,19.17
2023-03-18T19:26:29.499Z,17.75
2023-03-18T19:31:35.518Z,19.88
2023-03-18T19:36:41.541Z,30.48
2023-03-18T19:41:48.031Z,27.45
2023-03-18T19:46:54.856Z,20.90
2023-03-18T19:51:57.741Z,23.55
2023-03-18T19:57:04.317Z,14.93
2023-03-18T20:02:21.037Z,16.08
2023-03-18T20:07:34.057Z,11.80
2023-03-18T20:12:40.348Z,11.02
2023-03-18T20:17:46.588Z,15.23
2023-03-18T20:22:53.867Z,15.83
2023-03-18T20:28:07.427Z,16.98
2023-03-18T20:33:10.659Z,16.67
2023-03-18T20:38:18.833Z,15.32
2023-03-18T20:43:25.492Z,13.63
2023-03-18T20:48:28.673Z,13.67
2023-03-18T20:53:37.890Z,11.38
2023-03-18T20:58:42.754Z,13.05
2023-03-18T21:03:49.054Z,14.10
2023-03-18T21:08:54.191Z,11.70
2023-03-18T21:13:58.935Z,11.43
2023-03-18T21:19:05.203Z,11.57
2023-03-18T21:24:25.074Z,11.63
2023-03-18T21:29:29.394Z,11.43
2023-03-18T21:34:33.308Z,9.50
2023-03-18T21:39:36.725Z,10.98
2023-03-18T21:44:41.265Z,11.45
2023-03-18T21:49:46.863Z,11.27
2023-03-18T21:54:50.044Z,9.80
2023-03-18T21:59:55.729Z,9.55
2023-03-18T22:05:01.383Z,9.18
2023-03-18T22:10:06.791Z,9.23
2023-03-18T22:15:35.901Z,10.88
2023-03-18T22:20:39.584Z,10.63
2023-03-18T22:25:44.535Z,9.98
2023-03-18T22:30:52.373Z,10.20
2023-03-18T22:35:55.843Z,11.55
2023-03-18T22:40:59.929Z,10.23
2023-03-18T22:46:08.111Z,10.55
2023-03-18T22:51:22.869Z,9.32
2023-03-18T22:56:25.877Z,9.20
2023-03-18T23:01:32.206Z,8.73
2023-03-18T23:06:35.412Z,8.40
2023-03-18T23:11:38.325Z,8.55
2023-03-18T23:16:42.509Z,9.57
2023-03-18T23:21:45.359Z,9.38
2023-03-18T23:26:51.260Z,8.80
2023-03-18T23:31:57.916Z,9.38
2023-03-18T23:37:09.784Z,8.50
2023-03-18T23:42:13.781Z,9.70
2023-03-18T23:47:18.029Z,10.90
2023-03-18T23:52:21.067Z,8.50
2023-03-18T23:57:24.224Z,8.73
